createdAt,value
2018-02-14T00:00:37.141Z,0.00
2018-02-14T00:01:37.134Z,0.00
2018-02-14T00:02:37.112Z,0.00
2018-02-14T00:03:37.118Z,0.00
2018-02-14T00:04:37.096Z,0.00
2018-02-14T00:05:37.150Z,0.00
2018-02-14T00:06:37.081Z,0.00
2018-02-14T00:07:37.073Z,0.00
2018-02-14T00:08:37.066Z,0.00
2018-02-14T00:09:37.078Z,0.00
2018-02-14T00:10:37.053Z,0.00
2018-02-14T00:11:37.060Z,0.00
2018-02-14T00:12:37.055Z,0.00
2018-02-14T00:13:37.033Z,0.00
2018-02-14T00:14:37.041Z,0.00
2018-02-14T00:15:37.017Z,0.00
2018-02-14T00:16:37.006Z,0.00
2018-02-14T00:17:37.003Z,0.00
2018-02-14T00:18:36.993Z,0.00
2018-02-14T00:19:36.987Z,0.00
2018-02-14T00:20:36.976Z,0.00
2018-02-14T00:21:36.973Z,0.00
2018-02-14T00:22:36.967Z,0.00
2018-02-14T00:23:36.957Z,0.00
2018-02-14T00:24:36.945Z,0.00
2018-02-14T00:25:36.938Z,0.00
2018-02-14T00:26:36.940Z,0.00
2018-02-14T00:27:36.923Z,0.00
2018-02-14T00:28:37.020Z,0.00
2018-02-14T00:29:36.912Z,0.00
2018-02-14T00:30:36.901Z,0.00
2018-02-14T00:31:36.894Z,0.00
2018-02-14T00:32:36.885Z,0.00
2018-02-14T00:33:36.883Z,0.00
2018-02-14T00:34:36.874Z,0.00
2018-02-14T00:35:36.861Z,0.00
2018-02-14T00:36:36.858Z,0.00
2018-02-14T00:37:36.852Z,0.00
2018-02-14T00:38:36.843Z,0.00
2018-02-14T00:39:36.830Z,0.00
2018-02-14T00:40:36.823Z,0.00
2018-02-14T00:41:36.817Z,0.00
2018-02-14T00:42:36.813Z,0.00
2018-02-14T00:43:36.805Z,0.00
2018-02-14T00:44:36.794Z,0.00
2018-02-14T00:45:36.789Z,0.00
2018-02-14T00:46:36.782Z,0.00
2018-02-14T00:47:36.773Z,0.00
2018-02-14T00:48:36.763Z,0.00
2018-02-14T00:49:36.759Z,0.00
2018-02-14T00:50:36.772Z,0.00
2018-02-14T00:51:36.760Z,0.00
2018-02-14T00:52:36.753Z,0.00
2018-02-14T00:53:36.728Z,0.00
2018-02-14T00:54:36.738Z,0.00
2018-02-14T00:55:36.713Z,0.00
2018-02-14T00:56:36.722Z,0.00
2018-02-14T00:57:36.693Z,0.00
2018-02-14T00:58:36.686Z,0.00
2018-02-14T00:59:36.698Z,0.00
2018-02-14T01:00:36.691Z,0.00
2018-02-14T01:01:36.663Z,0.00
2018-02-14T01:02:36.659Z,0.00
2018-02-14T01:03:36.646Z,0.00
2018-02-14T01:04:36.656Z,0.00
2018-02-14T01:05:36.636Z,0.00
2018-02-14T01:06:36.645Z,0.00
2018-02-14T01:07:36.637Z,0.00
2018-02-14T01:08:36.613Z,0.00
2018-02-14T01:09:36.607Z,0.00
2018-02-14T01:10:36.597Z,0.00
2018-02-14T01:11:36.602Z,0.00
2018-02-14T01:12:36.581Z,0.00
2018-02-14T01:13:36.587Z,0.00
2018-02-14T01:14:36.585Z,0.00
2018-02-14T01:15:36.571Z,0.00
2018-02-14T01:16:36.565Z,0.00
2018-02-14T01:17:36.561Z,0.00
2018-02-14T01:18:36.536Z,0.00
2018-02-14T01:19:36.526Z,0.00
2018-02-14T01:20:36.516Z,0.00
2018-02-14T01:21:36.529Z,0.00
2018-02-14T01:22:36.519Z,0.00
2018-02-14T01:23:36.510Z,0.00
2018-02-14T01:24:36.486Z,0.00
2018-02-14T01:25:36.500Z,0.00
2018-02-14T01:26:36.488Z,0.00
2018-02-14T01:27:36.467Z,0.00
2018-02-14T01:28:36.496Z,0.00
2018-02-14T01:29:36.447Z,0.00
2018-02-14T01:30:36.445Z,0.00
2018-02-14T01:31:36.454Z,0.00
2018-02-14T01:32:36.442Z,0.00
2018-02-14T01:33:36.421Z,0.00
2018-02-14T01:34:36.414Z,0.00
2018-02-14T01:35:36.405Z,0.00
2018-02-14T01:36:36.414Z,0.00
2018-02-14T01:37:36.387Z,0.00
2018-02-14T01:38:36.400Z,0.00
2018-02-14T01:39:36.389Z,0.00
2018-02-14T01:40:36.563Z,0.00
2018-02-14T01:41:36.372Z,0.00
2018-02-14T01:42:36.347Z,0.00
2018-02-14T01:43:36.363Z,0.00
2018-02-14T01:44:36.335Z,0.00
2018-02-14T01:45:36.344Z,0.00
2018-02-14T01:46:36.337Z,0.00
2018-02-14T01:47:36.312Z,0.00
2018-02-14T01:48:36.322Z,0.00
2018-02-14T01:49:36.315Z,0.00
2018-02-14T01:50:36.289Z,0.00
2018-02-14T01:51:36.281Z,0.00
2018-02-14T01:52:36.390Z,0.00
2018-02-14T01:53:36.282Z,0.00
2018-02-14T01:54:36.258Z,0.00
2018-02-14T01:55:36.266Z,0.00
2018-02-14T01:56:36.242Z,0.00
2018-02-14T01:57:36.234Z,0.00
2018-02-14T01:58:36.239Z,0.00
2018-02-14T01:59:36.235Z,0.00
2018-02-14T02:00:36.231Z,0.00
2018-02-14T02:01:36.206Z,0.00
2018-02-14T02:02:36.196Z,0.00
2018-02-14T02:03:36.205Z,0.00
2018-02-14T02:04:36.282Z,0.00
2018-02-14T02:05:36.173Z,0.00
2018-02-14T02:06:36.182Z,0.00
2018-02-14T02:07:36.179Z,0.00
2018-02-14T02:08:36.166Z,0.00
2018-02-14T02:09:36.155Z,0.00
2018-02-14T02:10:36.134Z,0.00
2018-02-14T02:11:36.126Z,0.00
2018-02-14T02:12:36.135Z,0.00
2018-02-14T02:13:36.111Z,0.00
2018-02-14T02:14:36.104Z,0.00
2018-02-14T02:15:36.112Z,0.00
2018-02-14T02:16:36.088Z,0.00
2018-02-14T02:17:36.093Z,0.00
2018-02-14T02:18:36.075Z,0.00
2018-02-14T02:19:36.064Z,0.00
2018-02-14T02:20:36.084Z,0.00
2018-02-14T02:21:36.047Z,0.00
2018-02-14T02:22:36.071Z,0.00
2018-02-14T02:23:36.051Z,0.00
2018-02-14T02:24:36.027Z,0.00
2018-02-14T02:25:36.015Z,0.00
2018-02-14T02:26:36.007Z,0.00
2018-02-14T02:27:36.004Z,0.00
2018-02-14T02:28:36.012Z,0.00
2018-02-14T02:29:36.005Z,0.00
2018-02-14T02:30:35.998Z,0.00
2018-02-14T02:31:35.972Z,0.00
2018-02-14T02:32:35.977Z,0.00
2018-02-14T02:33:35.969Z,0.00
2018-02-14T02:34:35.951Z,0.00
2018-02-14T02:35:35.957Z,0.00
2018-02-14T02:36:35.949Z,0.00
2018-02-14T02:37:35.920Z,0.00
2018-02-14T02:38:35.930Z,0.00
2018-02-14T02:39:35.925Z,0.00
2018-02-14T02:40:35.901Z,0.00
2018-02-14T02:41:35.890Z,0.00
2018-02-14T02:42:35.903Z,0.00
2018-02-14T02:43:35.877Z,0.00
2018-02-14T02:44:35.888Z,0.00
2018-02-14T02:45:35.858Z,0.00
2018-02-14T02:46:35.867Z,0.00
2018-02-14T02:47:35.858Z,0.00
2018-02-14T02:48:35.850Z,0.00
2018-02-14T02:49:35.846Z,0.00
2018-02-14T02:50:35.838Z,0.00
2018-02-14T02:51:35.830Z,0.00
2018-02-14T02:52:35.923Z,0.00
2018-02-14T02:53:35.815Z,0.00
2018-02-14T02:54:35.808Z,0.00
2018-02-14T02:55:35.798Z,0.00
2018-02-14T02:56:35.791Z,0.00
2018-02-14T02:57:35.786Z,0.00
2018-02-14T02:58:35.776Z,0.00
2018-02-14T02:59:35.766Z,0.00
2018-02-14T03:00:35.759Z,0.00
2018-02-14T03:01:35.751Z,0.00
2018-02-14T03:02:35.745Z,0.00
2018-02-14T03:03:35.730Z,0.00
2018-02-14T03:04:35.727Z,0.00
2018-02-14T03:05:35.719Z,0.00
2018-02-14T03:06:35.717Z,0.00
2018-02-14T03:07:35.703Z,0.00
2018-02-14T03:08:35.691Z,0.00
2018-02-14T03:09:35.688Z,0.00
2018-02-14T03:10:35.780Z,0.00
2018-02-14T03:11:35.671Z,0.00
2018-02-14T03:12:35.663Z,0.00
2018-02-14T03:13:35.656Z,0.00
2018-02-14T03:14:35.648Z,0.00
2018-02-14T03:15:35.639Z,0.00
2018-02-14T03:16:35.632Z,0.00
2018-02-14T03:17:35.624Z,0.00
2018-02-14T03:18:35.616Z,0.00
2018-02-14T03:19:35.607Z,0.00
2018-02-14T03:20:35.595Z,0.00
2018-02-14T03:21:35.592Z,0.00
2018-02-14T03:22:35.584Z,0.00
2018-02-14T03:23:35.575Z,0.00
2018-02-14T03:24:35.565Z,0.00
2018-02-14T03:25:35.553Z,0.00
2018-02-14T03:26:35.551Z,0.00
2018-02-14T03:27:41.808Z,0.00
2018-02-14T03:28:35.533Z,0.00
2018-02-14T03:29:35.528Z,0.00
2018-02-14T03:30:35.517Z,0.00
2018-02-14T03:31:35.513Z,0.00
2018-02-14T03:32:35.503Z,0.00
2018-02-14T03:33:35.496Z,0.00
2018-02-14T03:34:35.488Z,0.00
2018-02-14T03:35:35.482Z,0.00
2018-02-14T03:36:35.472Z,0.00
2018-02-14T03:37:35.462Z,0.00
2018-02-14T03:38:35.454Z,0.00
2018-02-14T03:39:35.444Z,0.00
2018-02-14T03:40:35.434Z,0.00
2018-02-14T03:41:35.440Z,0.00
2018-02-14T03:42:35.426Z,0.00
2018-02-14T03:43:35.415Z,0.00
2018-02-14T03:44:35.409Z,0.00
2018-02-14T03:45:35.401Z,0.00
2018-02-14T03:46:35.492Z,0.00
2018-02-14T03:47:35.381Z,0.00
2018-02-14T03:48:35.375Z,0.00
2018-02-14T03:49:35.368Z,0.00
2018-02-14T03:50:35.363Z,0.00
2018-02-14T03:51:35.351Z,0.00
2018-02-14T03:52:35.342Z,0.00
2018-02-14T03:53:35.335Z,0.00
2018-02-14T03:54:35.335Z,0.00
2018-02-14T03:55:35.323Z,0.00
2018-02-14T03:56:35.312Z,0.00
2018-02-14T03:57:35.307Z,0.00
2018-02-14T03:58:35.299Z,0.00
2018-02-14T03:59:35.287Z,0.00
2018-02-14T04:00:35.280Z,0.00
2018-02-14T04:01:35.272Z,0.00
2018-02-14T04:02:35.266Z,0.00
2018-02-14T04:03:35.256Z,0.00
2018-02-14T04:04:35.253Z,0.00
2018-02-14T04:05:35.241Z,0.00
2018-02-14T04:06:35.233Z,0.00
2018-02-14T04:07:35.229Z,0.00
2018-02-14T04:08:35.217Z,0.00
2018-02-14T04:09:35.217Z,0.00
2018-02-14T04:10:35.203Z,0.00
2018-02-14T04:11:35.194Z,0.00
2018-02-14T04:12:35.187Z,0.00
2018-02-14T04:13:35.179Z,0.00
2018-02-14T04:14:35.176Z,0.00
2018-02-14T04:15:35.151Z,0.00
2018-02-14T04:16:35.139Z,0.00
2018-02-14T04:17:35.135Z,0.00
2018-02-14T04:18:35.145Z,0.00
2018-02-14T04:19:35.132Z,0.00
2018-02-14T04:20:35.124Z,0.00
2018-02-14T04:21:35.121Z,0.00
2018-02-14T04:22:35.109Z,0.00
2018-02-14T04:23:35.084Z,0.00
2018-02-14T04:24:35.097Z,0.00
2018-02-14T04:25:35.089Z,0.00
2018-02-14T04:26:35.065Z,0.00
2018-02-14T04:27:35.056Z,0.00
2018-02-14T04:28:35.049Z,0.00
2018-02-14T04:29:35.043Z,0.00
2018-02-14T04:30:35.047Z,0.00
2018-02-14T04:31:35.042Z,0.00
2018-02-14T04:32:35.018Z,0.00
2018-02-14T04:33:35.010Z,0.00
2018-02-14T04:34:35.013Z,0.00
2018-02-14T04:35:35.009Z,0.00
2018-02-14T04:36:34.982Z,0.00
2018-02-14T04:37:34.994Z,0.00
2018-02-14T04:38:34.972Z,0.00
2018-02-14T04:39:34.977Z,0.00
2018-02-14T04:40:34.955Z,0.00
2018-02-14T04:41:34.961Z,0.00
2018-02-14T04:42:34.940Z,0.00
2018-02-14T04:43:34.945Z,0.00
2018-02-14T04:44:34.934Z,0.00
2018-02-14T04:45:34.934Z,0.00
2018-02-14T04:46:35.008Z,0.00
2018-02-14T04:47:34.914Z,0.00
2018-02-14T04:48:34.901Z,0.00
2018-02-14T04:49:34.883Z,0.00
2018-02-14T04:50:34.891Z,0.00
2018-02-14T04:51:34.867Z,0.00
2018-02-14T04:52:34.855Z,0.00
2018-02-14T04:53:34.866Z,0.00
2018-02-14T04:54:34.858Z,0.00
2018-02-14T04:55:34.850Z,0.00
2018-02-14T04:56:34.842Z,0.00
2018-02-14T04:57:34.834Z,0.00
2018-02-14T04:58:34.826Z,0.00
2018-02-14T04:59:34.803Z,0.00
2018-02-14T05:00:34.794Z,0.00
2018-02-14T05:01:34.786Z,0.00
2018-02-14T05:02:34.789Z,0.00
2018-02-14T05:03:34.781Z,0.00
2018-02-14T05:04:34.762Z,0.00
2018-02-14T05:05:34.754Z,0.00
2018-02-14T05:06:34.761Z,0.00
2018-02-14T05:07:34.752Z,0.00
2018-02-14T05:08:34.725Z,0.00
2018-02-14T05:09:34.736Z,0.00
2018-02-14T05:10:34.723Z,0.00
2018-02-14T05:11:34.699Z,0.00
2018-02-14T05:12:34.691Z,0.00
2018-02-14T05:13:34.703Z,0.00
2018-02-14T05:14:34.680Z,0.00
2018-02-14T05:15:34.681Z,0.00
2018-02-14T05:16:34.777Z,0.00
2018-02-14T05:17:34.670Z,0.00
2018-02-14T05:18:34.661Z,0.00
2018-02-14T05:19:34.634Z,0.00
2018-02-14T05:20:34.646Z,0.00
2018-02-14T05:21:34.632Z,0.00
2018-02-14T05:22:34.628Z,0.00
2018-02-14T05:23:34.603Z,0.00
2018-02-14T05:24:34.606Z,0.00
2018-02-14T05:25:34.599Z,0.00
2018-02-14T05:26:34.591Z,0.00
2018-02-14T05:27:34.582Z,0.00
2018-02-14T05:28:34.578Z,0.00
2018-02-14T05:29:34.568Z,0.00
2018-02-14T05:30:34.558Z,0.00
2018-02-14T05:31:34.552Z,0.00
2018-02-14T05:32:34.540Z,0.00
2018-02-14T05:33:34.532Z,0.00
2018-02-14T05:34:34.624Z,0.00
2018-02-14T05:35:34.515Z,0.00
2018-02-14T05:36:34.544Z,0.00
2018-02-14T05:37:34.500Z,0.00
2018-02-14T05:38:34.491Z,0.00
2018-02-14T05:39:34.482Z,0.00
2018-02-14T05:40:34.473Z,0.00
2018-02-14T05:41:34.466Z,0.00
2018-02-14T05:42:34.457Z,0.00
2018-02-14T05:43:34.448Z,0.00
2018-02-14T05:44:34.443Z,0.00
2018-02-14T05:45:34.432Z,0.00
2018-02-14T05:46:34.423Z,0.00
2018-02-14T05:47:34.399Z,0.00
2018-02-14T05:48:34.406Z,0.00
2018-02-14T05:49:34.398Z,0.00
2018-02-14T05:50:34.376Z,0.00
2018-02-14T05:51:34.366Z,0.00
2018-02-14T05:52:34.473Z,0.00
2018-02-14T05:53:34.350Z,0.00
2018-02-14T05:54:34.361Z,0.00
2018-02-14T05:55:34.347Z,0.00
2018-02-14T05:56:34.331Z,0.00
2018-02-14T05:57:34.331Z,0.00
2018-02-14T05:58:34.431Z,0.00
2018-02-14T05:59:34.299Z,0.00
2018-02-14T06:00:34.308Z,0.00
2018-02-14T06:01:34.288Z,0.00
2018-02-14T06:02:34.297Z,0.00
2018-02-14T06:03:34.283Z,0.00
2018-02-14T06:04:34.254Z,0.00
2018-02-14T06:05:34.267Z,0.00
2018-02-14T06:06:34.242Z,0.00
2018-02-14T06:07:34.250Z,0.00
2018-02-14T06:08:34.246Z,0.00
2018-02-14T06:09:34.229Z,0.00
2018-02-14T06:10:34.309Z,0.00
2018-02-14T06:11:34.195Z,0.00
2018-02-14T06:12:34.212Z,0.00
2018-02-14T06:13:34.188Z,0.00
2018-02-14T06:14:34.177Z,0.00
2018-02-14T06:15:34.187Z,0.00
2018-02-14T06:16:34.180Z,0.00
2018-02-14T06:17:34.150Z,0.00
2018-02-14T06:18:34.146Z,0.00
2018-02-14T06:19:34.151Z,0.00
2018-02-14T06:20:34.142Z,0.00
2018-02-14T06:21:34.134Z,0.00
2018-02-14T06:22:34.210Z,0.00
2018-02-14T06:23:34.095Z,0.00
2018-02-14T06:24:34.093Z,0.00
2018-02-14T06:25:34.098Z,0.00
2018-02-14T06:26:34.094Z,0.00
2018-02-14T06:27:34.068Z,0.00
2018-02-14T06:28:34.060Z,0.00
2018-02-14T06:29:34.047Z,0.00
2018-02-14T06:30:34.056Z,0.00
2018-02-14T06:31:34.044Z,0.00
2018-02-14T06:32:34.027Z,0.00
2018-02-14T06:33:34.028Z,0.00
2018-02-14T06:34:34.025Z,0.00
2018-02-14T06:35:34.018Z,0.00
2018-02-14T06:36:33.988Z,0.00
2018-02-14T06:37:33.980Z,0.00
2018-02-14T06:38:33.992Z,0.00
2018-02-14T06:39:33.963Z,0.00
2018-02-14T06:40:33.975Z,0.00
2018-02-14T06:41:33.952Z,0.00
2018-02-14T06:42:33.959Z,0.00
2018-02-14T06:43:33.932Z,0.00
2018-02-14T06:44:33.927Z,0.00
2018-02-14T06:45:33.934Z,0.00
2018-02-14T06:46:33.920Z,0.00
2018-02-14T06:47:33.902Z,0.00
2018-02-14T06:48:33.889Z,0.00
2018-02-14T06:49:33.886Z,0.00
2018-02-14T06:50:33.872Z,0.00
2018-02-14T06:51:33.863Z,0.00
2018-02-14T06:52:33.870Z,0.00
2018-02-14T06:53:33.849Z,0.00
2018-02-14T06:54:33.854Z,0.00
2018-02-14T06:55:33.855Z,0.00
2018-02-14T06:56:33.842Z,0.00
2018-02-14T06:57:33.839Z,0.00
2018-02-14T06:58:33.827Z,0.00
2018-02-14T06:59:33.822Z,0.00
2018-02-14T07:00:33.809Z,0.00
2018-02-14T07:01:33.797Z,0.00
2018-02-14T07:02:33.794Z,0.00
2018-02-14T07:03:33.785Z,0.00
2018-02-14T07:04:33.773Z,0.00
2018-02-14T07:05:33.769Z,0.00
2018-02-14T07:06:33.756Z,0.00
2018-02-14T07:07:33.752Z,0.00
2018-02-14T07:08:33.748Z,0.00
2018-02-14T07:09:33.736Z,0.00
2018-02-14T07:10:33.728Z,0.00
2018-02-14T07:11:33.720Z,0.00
2018-02-14T07:12:33.716Z,0.00
2018-02-14T07:13:33.704Z,0.00
2018-02-14T07:14:33.700Z,0.00
2018-02-14T07:15:33.692Z,0.00
2018-02-14T07:16:33.775Z,0.00
2018-02-14T07:17:33.676Z,0.00
2018-02-14T07:18:33.668Z,0.00
2018-02-14T07:19:33.655Z,0.00
2018-02-14T07:20:33.647Z,0.00
2018-02-14T07:21:33.644Z,0.00
2018-02-14T07:22:33.627Z,0.00
2018-02-14T07:23:33.627Z,0.00
2018-02-14T07:24:33.614Z,0.00
2018-02-14T07:25:33.602Z,0.00
2018-02-14T07:26:33.603Z,0.00
2018-02-14T07:27:33.594Z,0.00
2018-02-14T07:28:33.585Z,0.00
2018-02-14T07:29:33.575Z,0.00
2018-02-14T07:30:33.571Z,0.00
2018-02-14T07:31:33.563Z,0.00
2018-02-14T07:32:33.551Z,0.00
2018-02-14T07:33:33.547Z,0.00
2018-02-14T07:34:33.637Z,0.00
2018-02-14T07:35:33.533Z,0.00
2018-02-14T07:36:33.523Z,0.00
2018-02-14T07:37:33.506Z,0.00
2018-02-14T07:38:33.509Z,0.00
2018-02-14T07:39:33.501Z,0.00
2018-02-14T07:40:33.493Z,0.00
2018-02-14T07:41:33.481Z,0.00
2018-02-14T07:42:33.474Z,0.00
2018-02-14T07:43:33.448Z,0.00
2018-02-14T07:44:33.462Z,0.00
2018-02-14T07:45:33.437Z,0.00
2018-02-14T07:46:33.446Z,0.00
2018-02-14T07:47:33.438Z,0.00
2018-02-14T07:48:33.413Z,0.00
2018-02-14T07:49:33.406Z,0.00
2018-02-14T07:50:33.390Z,0.00
2018-02-14T07:51:33.406Z,0.00
2018-02-14T07:52:33.372Z,0.00
2018-02-14T07:53:33.365Z,0.00
2018-02-14T07:54:33.383Z,0.00
2018-02-14T07:55:33.353Z,0.00
2018-02-14T07:56:33.363Z,0.00
2018-02-14T07:57:33.343Z,0.00
2018-02-14T07:58:33.331Z,0.00
2018-02-14T07:59:33.322Z,0.00
2018-02-14T08:00:33.310Z,0.00
2018-02-14T08:01:33.320Z,0.00
2018-02-14T08:02:33.304Z,0.00
2018-02-14T08:03:33.303Z,0.00
2018-02-14T08:04:33.305Z,0.00
2018-02-14T08:05:33.270Z,0.00
2018-02-14T08:06:33.273Z,0.00
2018-02-14T08:07:33.260Z,0.00
2018-02-14T08:08:33.256Z,0.00
2018-02-14T08:09:33.239Z,0.00
2018-02-14T08:10:33.254Z,0.00
2018-02-14T08:11:33.233Z,0.00
2018-02-14T08:12:33.226Z,0.00
2018-02-14T08:13:33.225Z,0.00
2018-02-14T08:14:33.227Z,0.00
2018-02-14T08:15:33.193Z,0.00
2018-02-14T08:16:33.301Z,0.00
2018-02-14T08:17:33.182Z,0.00
2018-02-14T08:18:33.175Z,0.00
2018-02-14T08:19:33.170Z,0.00
2018-02-14T08:20:33.163Z,0.00
2018-02-14T08:21:33.163Z,0.00
2018-02-14T08:22:33.147Z,0.00
2018-02-14T08:23:33.129Z,0.00
2018-02-14T08:24:33.122Z,0.00
2018-02-14T08:25:33.124Z,0.00
2018-02-14T08:26:33.117Z,0.00
2018-02-14T08:27:33.107Z,0.00
2018-02-14T08:28:33.090Z,0.00
2018-02-14T08:29:33.093Z,0.00
2018-02-14T08:30:33.085Z,0.00
2018-02-14T08:31:33.076Z,0.00
2018-02-14T08:32:33.086Z,0.00
2018-02-14T08:33:33.069Z,0.00
2018-02-14T08:34:33.068Z,0.00
2018-02-14T08:35:33.043Z,0.00
2018-02-14T08:36:33.039Z,0.00
2018-02-14T08:37:33.044Z,0.00
2018-02-14T08:38:33.014Z,0.00
2018-02-14T08:39:33.011Z,0.00
2018-02-14T08:40:33.003Z,0.00
2018-02-14T08:41:32.992Z,0.00
2018-02-14T08:42:32.988Z,0.00
2018-02-14T08:43:32.980Z,0.00
2018-02-14T08:44:32.973Z,0.00
2018-02-14T08:45:32.967Z,0.00
2018-02-14T08:46:32.952Z,0.00
2018-02-14T08:47:32.948Z,0.00
2018-02-14T08:48:32.937Z,0.00
2018-02-14T08:49:32.934Z,0.00
2018-02-14T08:50:32.921Z,0.00
2018-02-14T08:51:32.912Z,0.00
2018-02-14T08:52:33.011Z,0.00
2018-02-14T08:53:32.903Z,0.00
2018-02-14T08:54:32.891Z,0.00
2018-02-14T08:55:32.882Z,0.00
2018-02-14T08:56:32.918Z,0.00
2018-02-14T08:57:32.876Z,0.00
2018-02-14T08:58:32.864Z,0.00
2018-02-14T08:59:32.851Z,0.00
2018-02-14T09:00:32.853Z,0.00
2018-02-14T09:01:32.841Z,0.00
2018-02-14T09:02:32.828Z,0.00
2018-02-14T09:03:32.819Z,0.00
2018-02-14T09:04:32.821Z,0.00
2018-02-14T09:05:32.814Z,0.00
2018-02-14T09:06:32.807Z,0.00
2018-02-14T09:07:32.798Z,0.00
2018-02-14T09:08:32.790Z,0.00
2018-02-14T09:09:32.779Z,0.00
2018-02-14T09:10:32.771Z,0.00
2018-02-14T09:11:32.766Z,0.00
2018-02-14T09:12:32.755Z,0.00
2018-02-14T09:14:32.740Z,0.00
2018-02-14T09:15:32.730Z,0.00
2018-02-14T09:16:32.728Z,0.00
2018-02-14T09:17:32.720Z,0.00
2018-02-14T09:18:32.708Z,0.00
2018-02-14T09:19:32.704Z,0.00
2018-02-14T09:20:32.695Z,0.00
2018-02-14T09:21:32.688Z,0.00
2018-02-14T09:22:32.681Z,0.00
2018-02-14T09:23:32.670Z,0.00
2018-02-14T09:24:32.665Z,0.00
2018-02-14T09:25:32.658Z,0.00
2018-02-14T09:26:32.646Z,0.00
2018-02-14T09:27:32.642Z,0.00
2018-02-14T09:28:32.636Z,0.00
2018-02-14T09:29:32.622Z,0.00
2018-02-14T09:30:32.615Z,0.00
2018-02-14T09:31:32.611Z,0.00
2018-02-14T09:32:32.599Z,0.00
2018-02-14T09:33:32.591Z,0.00
2018-02-14T09:34:32.583Z,5.63
2018-02-14T09:35:32.575Z,5.63
2018-02-14T09:36:32.571Z,5.63
2018-02-14T09:37:32.564Z,5.63
2018-02-14T09:38:32.556Z,0.00
2018-02-14T09:39:32.548Z,0.00
2018-02-14T09:40:32.641Z,0.00
2018-02-14T09:41:32.532Z,0.00
2018-02-14T09:42:32.525Z,0.00
2018-02-14T09:43:32.519Z,0.00
2018-02-14T09:44:32.512Z,5.63
2018-02-14T09:45:32.502Z,5.63
2018-02-14T09:46:32.494Z,5.63
2018-02-14T09:47:32.485Z,5.63
2018-02-14T09:48:32.478Z,5.63
2018-02-14T09:49:32.470Z,5.63
2018-02-14T09:50:32.480Z,5.63
2018-02-14T09:51:32.450Z,5.63
2018-02-14T09:52:32.447Z,5.63
2018-02-14T09:53:32.443Z,5.63
2018-02-14T09:54:32.447Z,11.25
2018-02-14T09:55:32.442Z,11.25
2018-02-14T09:56:32.434Z,11.25
2018-02-14T09:57:32.426Z,5.63
2018-02-14T09:58:32.419Z,11.25
2018-02-14T09:59:32.411Z,11.25
2018-02-14T10:00:32.402Z,5.63
2018-02-14T10:01:32.398Z,5.63
2018-02-14T10:02:32.387Z,5.63
2018-02-14T10:03:32.384Z,5.63
2018-02-14T10:04:32.472Z,5.63
2018-02-14T10:05:32.363Z,5.63
2018-02-14T10:06:32.357Z,5.63
2018-02-14T10:07:32.352Z,5.63
2018-02-14T10:08:32.345Z,5.63
2018-02-14T10:09:32.337Z,5.63
2018-02-14T10:10:32.430Z,11.25
2018-02-14T10:11:32.316Z,5.63
2018-02-14T10:12:32.314Z,5.63
2018-02-14T10:13:32.307Z,5.63
2018-02-14T10:14:32.295Z,11.25
2018-02-14T10:15:32.294Z,11.25
2018-02-14T10:16:32.286Z,11.25
2018-02-14T10:17:32.280Z,5.63
2018-02-14T10:18:32.270Z,5.63
2018-02-14T10:19:32.260Z,5.63
2018-02-14T10:20:32.260Z,11.25
2018-02-14T10:21:32.246Z,11.25
2018-02-14T10:22:32.242Z,11.25
2018-02-14T10:23:32.233Z,11.25
2018-02-14T10:24:32.227Z,11.25
2018-02-14T10:25:32.219Z,11.25
2018-02-14T10:26:32.212Z,11.25
2018-02-14T10:27:32.203Z,16.88
2018-02-14T10:28:32.300Z,16.88
2018-02-14T10:29:32.186Z,16.88
2018-02-14T10:30:32.186Z,16.88
2018-02-14T10:31:32.178Z,22.50
2018-02-14T10:32:32.164Z,22.50
2018-02-14T10:33:32.162Z,22.50
2018-02-14T10:34:32.155Z,16.88
2018-02-14T10:35:32.149Z,22.50
2018-02-14T10:36:32.142Z,22.50
2018-02-14T10:37:32.133Z,22.50
2018-02-14T10:38:32.131Z,16.88
2018-02-14T10:39:32.121Z,16.88
2018-02-14T10:40:32.214Z,22.50
2018-02-14T10:41:32.108Z,22.50
2018-02-14T10:42:32.096Z,22.50
2018-02-14T10:43:32.089Z,22.50
2018-02-14T10:44:32.082Z,22.50
2018-02-14T10:45:32.077Z,22.50
2018-02-14T10:46:32.070Z,22.50
2018-02-14T10:47:32.064Z,22.50
2018-02-14T10:48:32.051Z,22.50
2018-02-14T10:49:32.045Z,22.50
2018-02-14T10:50:32.040Z,22.50
2018-02-14T10:51:32.034Z,22.50
2018-02-14T10:52:32.023Z,22.50
2018-02-14T10:53:32.021Z,22.50
2018-02-14T10:54:32.009Z,16.88
2018-02-14T10:55:32.001Z,22.50
2018-02-14T10:56:31.999Z,22.50
2018-02-14T10:57:31.990Z,22.50
2018-02-14T10:58:32.084Z,22.50
2018-02-14T10:59:31.959Z,16.88
2018-02-14T11:00:31.973Z,16.88
2018-02-14T11:01:31.966Z,16.88
2018-02-14T11:02:31.958Z,16.88
2018-02-14T11:03:31.931Z,16.88
2018-02-14T11:04:31.928Z,16.88
2018-02-14T11:05:31.936Z,16.88
2018-02-14T11:06:31.915Z,22.50
2018-02-14T11:07:31.922Z,16.88
2018-02-14T11:08:31.914Z,16.88
2018-02-14T11:09:31.904Z,16.88
2018-02-14T11:10:31.899Z,22.50
2018-02-14T11:11:31.893Z,16.88
2018-02-14T11:12:31.887Z,16.88
2018-02-14T11:13:31.866Z,11.25
2018-02-14T11:14:31.855Z,11.25
2018-02-14T11:15:32.001Z,16.88
2018-02-14T11:16:31.857Z,16.88
2018-02-14T11:17:31.853Z,16.88
2018-02-14T11:18:31.831Z,11.25
2018-02-14T11:19:31.824Z,11.25
2018-02-14T11:20:31.828Z,11.25
2018-02-14T11:21:31.826Z,11.25
2018-02-14T11:22:31.859Z,16.88
2018-02-14T11:23:31.807Z,11.25
2018-02-14T11:24:31.790Z,11.25
2018-02-14T11:25:31.794Z,16.88
2018-02-14T11:26:31.791Z,16.88
2018-02-14T11:27:31.780Z,16.88
2018-02-14T11:28:31.774Z,16.88
2018-02-14T11:29:31.767Z,16.88
2018-02-14T11:30:31.760Z,22.50
2018-02-14T11:31:31.756Z,22.50
2018-02-14T11:32:31.755Z,22.50
2018-02-14T11:33:31.742Z,28.13
2018-02-14T11:34:31.733Z,28.13
2018-02-14T11:35:31.725Z,28.13
2018-02-14T11:36:31.725Z,28.13
2018-02-14T11:37:31.700Z,28.13
2018-02-14T11:38:31.695Z,33.75
2018-02-14T11:39:31.705Z,28.13
2018-02-14T11:40:31.677Z,22.50
2018-02-14T11:41:31.673Z,22.50
2018-02-14T11:42:31.669Z,16.88
2018-02-14T11:43:31.680Z,16.88
2018-02-14T11:44:31.672Z,16.88
2018-02-14T11:45:31.649Z,16.88
2018-02-14T11:46:31.658Z,16.88
2018-02-14T11:47:31.651Z,16.88
2018-02-14T11:48:31.628Z,11.25
2018-02-14T11:49:31.617Z,11.25
2018-02-14T11:50:31.632Z,11.25
2018-02-14T11:51:31.608Z,16.88
2018-02-14T11:52:31.597Z,11.25
2018-02-14T11:53:31.590Z,11.25
2018-02-14T11:54:31.584Z,11.25
2018-02-14T11:55:31.581Z,11.25
2018-02-14T11:56:31.587Z,11.25
2018-02-14T11:57:31.563Z,16.88
2018-02-14T11:58:31.557Z,16.88
2018-02-14T11:59:31.567Z,16.88
2018-02-14T12:00:31.559Z,16.88
2018-02-14T12:01:31.536Z,16.88
2018-02-14T12:02:31.530Z,16.88
2018-02-14T12:03:31.539Z,16.88
2018-02-14T12:04:31.532Z,22.50
2018-02-14T12:05:31.526Z,22.50
2018-02-14T12:06:31.503Z,28.13
2018-02-14T12:07:31.512Z,28.13
2018-02-14T12:08:31.505Z,22.50
2018-02-14T12:09:31.503Z,28.13
2018-02-14T12:10:31.480Z,33.75
2018-02-14T12:11:31.489Z,28.13
2018-02-14T12:12:31.464Z,28.13
2018-02-14T12:13:31.476Z,22.50
2018-02-14T12:14:31.453Z,22.50
2018-02-14T12:15:31.462Z,28.13
2018-02-14T12:16:31.456Z,33.75
2018-02-14T12:17:31.427Z,39.38
2018-02-14T12:18:31.426Z,39.38
2018-02-14T12:19:31.418Z,39.38
2018-02-14T12:20:31.424Z,45.00
2018-02-14T12:21:31.417Z,45.00
2018-02-14T12:22:31.411Z,39.38
2018-02-14T12:23:31.388Z,39.38
2018-02-14T12:24:31.401Z,39.38
2018-02-14T12:25:31.377Z,45.00
2018-02-14T12:26:31.389Z,45.00
2018-02-14T12:27:31.365Z,45.00
2018-02-14T12:28:31.358Z,45.00
2018-02-14T12:29:31.368Z,56.25
2018-02-14T12:30:31.341Z,50.63
2018-02-14T12:31:31.338Z,45.00
2018-02-14T12:32:31.332Z,45.00
2018-02-14T12:33:31.342Z,39.38
2018-02-14T12:34:31.336Z,39.38
2018-02-14T12:35:31.330Z,39.38
2018-02-14T12:36:31.298Z,45.00
2018-02-14T12:37:31.300Z,39.38
2018-02-14T12:38:31.311Z,33.75
2018-02-14T12:39:31.283Z,45.00
2018-02-14T12:40:31.298Z,33.75
2018-02-14T12:41:31.292Z,50.63
2018-02-14T12:42:31.269Z,45.00
2018-02-14T12:43:31.280Z,39.38
2018-02-14T12:44:31.274Z,56.25
2018-02-14T12:45:31.268Z,56.25
2018-02-14T12:46:31.256Z,39.38
2018-02-14T12:47:31.256Z,33.75
2018-02-14T12:48:31.249Z,33.75
2018-02-14T12:49:31.242Z,45.00
2018-02-14T12:50:31.234Z,39.38
2018-02-14T12:51:31.226Z,45.00
2018-02-14T12:52:31.226Z,45.00
2018-02-14T12:53:31.222Z,56.25
2018-02-14T12:54:31.217Z,50.63
2018-02-14T12:55:31.209Z,45.00
2018-02-14T12:56:31.198Z,45.00
2018-02-14T12:57:31.198Z,39.38
2018-02-14T12:58:31.191Z,33.75
2018-02-14T12:59:31.181Z,28.13
2018-02-14T13:00:31.180Z,28.13
2018-02-14T13:01:31.170Z,45.00
2018-02-14T13:02:31.163Z,45.00
2018-02-14T13:03:31.160Z,33.75
2018-02-14T13:04:31.151Z,45.00
2018-02-14T13:05:31.145Z,50.63
2018-02-14T13:06:31.140Z,45.00
2018-02-14T13:07:31.138Z,39.38
2018-02-14T13:08:31.128Z,28.13
2018-02-14T13:09:31.123Z,22.50
2018-02-14T13:10:31.120Z,22.50
2018-02-14T13:11:31.114Z,28.13
2018-02-14T13:12:31.106Z,33.75
2018-02-14T13:13:31.102Z,28.13